Time;durP1;ratioP1;P1;durP2;ratioP2;P2;SDS_P1;SDS_P2;PMS_P1;PMS_P2;Temp;Humidity;BMP_temperature;BMP_pressure;BME280_temperature;BME280_humidity;BME280_pressure;Samples;Min_cycle;Max_cycle;Signal;HPM_P1;HPM_P2
2022/05/11 00:04:22;;;;;;;5.30;3.40;;;;;;;14.09;70.83;101204.44;10444938;28;20045;-78
2022/05/11 00:09:22;;;;;;;6.38;2.97;;;;;;;14.11;70.67;101192.22;10442872;28;20060;-78
2022/05/11 00:14:23;;;;;;;4.63;2.75;;;;;;;14.03;71.92;101189.28;10482163;28;20067;-78
2022/05/11 00:19:23;;;;;;;9.15;3.33;;;;;;;14.04;71.62;101182.31;10485525;28;20083;-78
2022/05/11 00:24:25;;;;;;;8.15;2.63;;;;;;;14.08;72.21;101181.59;10485233;28;20029;-78
2022/05/11 00:29:26;;;;;;;4.72;2.63;;;;;;;14.09;72.72;101171.09;10464803;28;20048;-78
2022/05/11 00:34:26;;;;;;;4.70;2.65;;;;;;;14.11;72.75;101165.91;10484022;28;20067;-78
2022/05/11 00:39:27;;;;;;;5.40;3.10;;;;;;;14.14;72.50;101160.75;10484402;28;20547;-78
2022/05/11 00:44:27;;;;;;;5.70;2.90;;;;;;;14.18;71.74;101152.13;10484216;28;20048;-78
2022/05/11 00:49:59;;;;;;;7.22;3.38;;;;;;;14.27;70.85;101142.78;10457085;28;20124;-78
2022/05/11 00:55:12;;;;;;;4.50;2.40;;;;;;;14.24;71.24;101133.03;10415699;28;20044;-78
2022/05/11 01:00:12;;;;;;;6.93;3.00;;;;;;;14.24;71.67;101130.41;10465729;28;20504;-78
2022/05/11 01:05:13;;;;;;;7.63;2.65;;;;;;;14.15;72.14;101115.19;10464578;28;20139;-79
2022/05/11 01:10:13;;;;;;;5.80;2.55;;;;;;;14.14;72.35;101121.28;10481875;28;20470;-78
2022/05/11 01:15:14;;;;;;;6.07;3.13;;;;;;;14.12;72.33;101112.44;10466146;28;20064;-78
2022/05/11 01:20:19;;;;;;;8.30;3.13;;;;;;;14.12;72.73;101098.34;10421468;28;20037;-79
2022/05/11 01:25:20;;;;;;;6.00;3.55;;;;;;;14.09;72.99;101110.56;10465681;28;20062;-78
2022/05/11 01:30:24;;;;;;;3.78;2.58;;;;;;;14.05;72.56;101110.41;10464707;28;20574;-78
2022/05/11 01:35:24;;;;;;;5.90;2.97;;;;;;;14.00;72.91;101110.22;10472783;28;20059;-78
2022/05/11 01:40:25;;;;;;;5.15;3.67;;;;;;;14.01;73.28;101093.59;10493873;28;20064;-78
2022/05/11 01:45:25;;;;;;;12.25;3.53;;;;;;;14.01;73.86;101095.34;10496673;28;20032;-78
2022/05/11 01:50:26;;;;;;;5.60;3.10;;;;;;;13.96;74.06;101092.53;10461386;28;20045;-78
2022/05/11 01:55:26;;;;;;;6.30;2.67;;;;;;;13.91;73.26;101086.19;10477324;28;20032;-78
2022/05/11 02:00:27;;;;;;;6.97;4.30;;;;;;;13.98;71.75;101069.78;10495939;28;20048;-78
2022/05/11 02:10:46;;;;;;;6.60;2.53;;;;;;;13.92;73.10;101061.69;10495536;28;20044;-78
2022/05/11 02:15:49;;;;;;;10.18;3.13;;;;;;;13.87;72.24;101058.91;10475911;28;20036;-79
2022/05/11 02:20:50;;;;;;;5.80;3.05;;;;;;;13.76;72.98;101068.13;10461374;28;20392;-78
2022/05/11 02:25:51;;;;;;;6.35;3.05;;;;;;;13.70;73.12;101067.88;10460525;28;20043;-78
2022/05/11 02:30:53;;;;;;;5.80;3.40;;;;;;;13.70;73.26;101067.88;10477950;28;20830;-78
2022/05/11 02:35:54;;;;;;;5.75;3.38;;;;;;;13.68;72.90;101065.19;10476198;28;20060;-78
2022/05/11 02:40:55;;;;;;;9.68;3.42;;;;;;;13.62;73.04;101071.13;10461661;28;20115;-78
2022/05/11 02:45:55;;;;;;;7.72;3.40;;;;;;;13.59;74.02;101059.56;10443877;28;20424;-78
2022/05/11 02:50:57;;;;;;;6.95;3.97;;;;;;;13.52;74.47;101063.72;10460094;28;20426;-78
2022/05/11 02:55:57;;;;;;;10.67;2.97;;;;;;;13.55;74.11;101055.03;10470158;28;20028;-78
2022/05/11 03:00:59;;;;;;;9.73;3.88;;;;;;;13.57;75.19;101053.34;10453675;28;20054;-78
2022/05/11 03:06:01;;;;;;;4.17;2.27;;;;;;;13.51;74.76;101044.41;10452780;28;20051;-78
2022/05/11 03:11:02;;;;;;;6.72;3.33;;;;;;;13.54;74.52;101051.50;10469773;28;20144;-78
2022/05/11 03:16:02;;;;;;;9.88;3.70;;;;;;;13.59;74.66;101039.44;10451783;28;20032;-78
2022/05/11 03:21:03;;;;;;;12.50;3.95;;;;;;;13.57;75.10;101042.84;10488629;28;20549;-78
2022/05/11 03:26:03;;;;;;;5.40;3.70;;;;;;;13.63;74.88;101038.72;10484704;28;20037;-78
2022/05/11 03:31:04;;;;;;;6.60;4.15;;;;;;;13.56;75.68;101035.78;10469367;28;20488;-79
2022/05/11 03:36:05;;;;;;;4.85;3.45;;;;;;;13.53;75.38;101028.69;10452234;28;20058;-77
2022/05/11 03:41:06;;;;;;;5.38;3.28;;;;;;;13.46;76.97;101026.66;10458426;28;20040;-76
2022/05/11 03:46:09;;;;;;;8.57;3.93;;;;;;;13.47;76.01;101039.84;9559171;28;10000550;-75
2022/05/11 03:51:10;;;;;;;9.35;5.05;;;;;;;13.47;76.06;101042.47;10380022;28;20131;-77
2022/05/11 03:56:13;;;;;;;7.65;3.28;;;;;;;13.48;75.20;101036.38;10380529;28;20041;-76
2022/05/11 04:01:14;;;;;;;5.70;3.63;;;;;;;13.36;76.69;101023.66;10385153;28;20050;-78
2022/05/11 04:06:15;;;;;;;6.80;3.65;;;;;;;13.16;76.81;101017.59;10378883;28;20056;-77
2022/05/11 04:11:16;;;;;;;6.88;4.18;;;;;;;13.05;77.65;101019.81;10374773;28;20033;-77
2022/05/11 04:16:16;;;;;;;5.65;3.92;;;;;;;13.04;78.94;101022.34;10398681;28;20042;-76
2022/05/11 04:21:17;;;;;;;9.00;4.32;;;;;;;13.13;78.76;101013.97;10380482;28;20037;-76
2022/05/11 04:26:17;;;;;;;8.68;4.05;;;;;;;13.25;77.54;101018.78;10398302;28;20061;-76
2022/05/11 04:31:18;;;;;;;8.25;3.65;;;;;;;13.28;77.12;101011.94;10400936;28;20057;-76
2022/05/11 04:36:20;;;;;;;5.78;3.28;;;;;;;13.43;76.87;101001.13;10411720;28;20566;-76
2022/05/11 04:41:21;;;;;;;9.73;3.13;;;;;;;13.59;76.20;100997.38;10397663;28;20037;-76
2022/05/11 04:46:21;;;;;;;7.28;3.63;;;;;;;13.78;75.47;100996.28;10391346;28;20065;-75
2022/05/11 04:51:23;;;;;;;9.93;3.90;;;;;;;13.89;75.27;100996.69;10396720;28;20047;-75
2022/05/11 04:56:24;;;;;;;5.00;3.40;;;;;;;13.95;75.66;100990.75;10394067;28;20033;-77
2022/05/11 05:01:25;;;;;;;7.53;5.15;;;;;;;14.05;75.06;100990.22;10393802;28;20278;-76
2022/05/11 05:06:27;;;;;;;6.03;3.57;;;;;;;14.24;74.88;101004.03;10386302;28;20067;-75
2022/05/11 05:11:28;;;;;;;10.13;4.60;;;;;;;14.33;74.05;100996.47;10398207;28;20486;-77
2022/05/11 05:16:28;;;;;;;10.35;4.57;;;;;;;14.27;74.05;100995.38;10398604;28;20072;-78
2022/05/11 05:21:29;;;;;;;5.93;3.20;;;;;;;13.99;75.53;101002.28;10399035;28;20057;-78
2022/05/11 05:26:30;;;;;;;6.22;4.40;;;;;;;14.25;76.57;101000.56;10397612;28;20056;-77
2022/05/11 05:31:31;;;;;;;9.77;5.55;;;;;;;16.15;71.17;101004.69;10400000;28;20109;-77
2022/05/11 05:36:35;;;;;;;9.90;4.45;;;;;;;18.52;57.62;100994.88;10377836;28;20052;-76
2022/05/11 05:41:36;;;;;;;4.07;2.28;;;;;;;19.55;57.23;100999.97;10381742;28;20436;-77
2022/05/11 05:46:36;;;;;;;9.13;3.87;;;;;;;20.04;54.19;101000.56;10392125;28;20117;-78
2022/05/11 05:51:37;;;;;;;6.17;3.20;;;;;;;20.57;52.48;101002.81;10365136;28;20432;-78
2022/05/11 05:56:37;;;;;;;8.10;2.80;;;;;;;21.36;50.62;100993.63;10401102;28;20104;-79
2022/05/11 06:01:38;;;;;;;10.73;4.00;;;;;;;21.39;47.84;101006.06;10397956;28;20038;-79
2022/05/11 06:06:38;;;;;;;6.77;3.77;;;;;;;21.96;44.64;100998.31;10399110;28;20061;-79
2022/05/11 06:11:39;;;;;;;7.87;4.50;;;;;;;22.17;45.93;101001.03;10397969;28;20409;-79
2022/05/11 06:16:39;;;;;;;9.87;4.40;;;;;;;22.31;46.16;100996.63;10397084;28;20048;-78
2022/05/11 06:21:40;;;;;;;5.50;3.30;;;;;;;22.89;44.41;101002.88;10403510;28;20068;-78
2022/05/11 06:26:42;;;;;;;11.73;4.53;;;;;;;23.57;41.84;101004.50;10405301;28;20132;-81
2022/05/11 06:31:42;;;;;;;8.15;4.22;;;;;;;23.41;42.01;101001.88;10404932;28;20139;-80
2022/05/11 06:36:43;;;;;;;8.13;4.23;;;;;;;23.71;42.73;100997.28;10402984;28;20116;-78
2022/05/11 06:41:43;;;;;;;4.97;3.33;;;;;;;23.79;41.50;100993.69;10387314;28;20049;-79
2022/05/11 06:46:44;;;;;;;7.07;3.17;;;;;;;23.83;40.19;100999.03;10407623;28;20318;-78
2022/05/11 06:51:45;;;;;;;6.68;2.95;;;;;;;24.74;38.87;100996.66;10383811;28;20093;-78
2022/05/11 07:02:05;;;;;;;8.63;2.92;;;;;;;24.65;38.35;100992.25;10397459;28;20037;-78
2022/05/11 07:07:05;;;;;;;9.98;4.72;;;;;;;25.42;36.91;100987.03;10395024;28;20494;-79
2022/05/11 07:12:25;;;;;;;6.63;3.85;;;;;;;25.53;36.34;100989.59;10374567;28;20108;-80
2022/05/11 07:18:03;;;;;;;4.38;2.42;;;;;;;25.40;35.33;100981.66;10362939;28;20053;-78
2022/05/11 07:23:04;;;;;;;3.70;2.30;;;;;;;25.40;36.38;100987.03;10331756;28;20514;-80
2022/05/11 07:28:05;;;;;;;4.05;1.80;;;;;;;25.79;35.91;100978.53;10364114;28;20540;-80
2022/05/11 07:33:06;;;;;;;3.97;1.55;;;;;;;26.20;34.16;100978.84;10361898;28;20089;-79
2022/05/11 07:38:08;;;;;;;4.07;1.73;;;;;;;25.73;34.95;100983.97;10345887;28;20026;-79
2022/05/11 07:43:08;;;;;;;4.25;1.70;;;;;;;25.63;35.62;100977.84;10362866;28;20042;-79
2022/05/11 07:48:09;;;;;;;3.97;1.70;;;;;;;25.59;36.14;100986.81;10345769;28;20061;-79
2022/05/11 07:53:09;;;;;;;6.57;2.17;;;;;;;26.60;34.84;100991.59;10330017;28;20065;-79
2022/05/11 08:03:32;;;;;;;4.28;1.75;;;;;;;26.44;35.36;100987.41;10348916;28;20050;-80
2022/05/11 08:08:32;;;;;;;1.93;1.13;;;;;;;26.72;33.69;100981.56;10362424;28;20116;-78
2022/05/11 08:13:33;;;;;;;3.90;1.60;;;;;;;26.88;35.71;100980.41;10361592;28;20088;-79
2022/05/11 08:18:34;;;;;;;7.38;2.08;;;;;;;27.24;32.84;100983.28;10361253;28;20038;-79
2022/05/11 08:23:34;;;;;;;7.93;1.40;;;;;;;27.64;33.77;100968.19;10345338;28;20462;-80
2022/05/11 08:28:35;;;;;;;5.53;1.85;;;;;;;28.60;31.86;100967.69;10360979;28;20112;-79
2022/05/11 08:33:38;;;;;;;3.87;2.27;;;;;;;28.01;34.12;100966.44;10362600;28;20038;-80
2022/05/11 08:38:41;;;;;;;5.05;1.70;;;;;;;29.09;32.87;100973.63;10345226;28;20497;-79
2022/05/11 08:43:42;;;;;;;3.92;1.58;;;;;;;28.93;30.82;100978.53;10344634;28;20457;-80
2022/05/11 08:49:04;;;;;;;4.78;1.98;;;;;;;28.82;31.63;100981.53;10360283;28;20034;-80
2022/05/11 08:54:33;;;;;;;7.78;2.20;;;;;;;27.89;32.71;100972.09;10360207;28;20062;-78
2022/05/11 08:59:34;;;;;;;4.07;2.33;;;;;;;28.12;33.45;100971.56;10372405;28;20038;-79
2022/05/11 09:04:42;;;;;;;6.70;2.07;;;;;;;28.36;31.39;100966.53;10360382;28;20041;-80
2022/05/11 09:09:43;;;;;;;5.25;2.28;;;;;;;28.80;30.81;100966.31;10390080;28;20050;-79
2022/05/11 09:14:49;;;;;;;11.13;3.00;;;;;;;29.51;29.71;100950.84;10400428;28;20504;-80
2022/05/11 09:20:20;;;;;;;9.88;2.38;;;;;;;29.72;30.97;100951.13;10368741;28;20037;-79
2022/05/11 09:25:24;;;;;;;3.63;2.03;;;;;;;29.89;31.40;100935.28;10379778;28;20033;-79
2022/05/11 09:30:27;;;;;;;6.65;1.80;;;;;;;28.94;32.66;100947.97;10401227;28;20405;-80
2022/05/11 09:35:35;;;;;;;10.30;2.33;;;;;;;29.02;32.90;100924.41;10384874;28;20043;-79
2022/05/11 09:40:53;;;;;;;7.93;2.50;;;;;;;29.13;32.91;100936.69;10383684;28;20053;-80
2022/05/11 09:45:53;;;;;;;7.57;2.17;;;;;;;30.05;31.97;100915.06;10401328;28;20481;-80
2022/05/11 09:50:56;;;;;;;3.80;1.97;;;;;;;29.35;31.23;100925.25;10399595;28;20065;-81
2022/05/11 09:55:56;;;;;;;5.22;2.38;;;;;;;29.79;32.83;100919.47;10382780;28;20034;-80
2022/05/11 10:01:10;;;;;;;8.60;3.63;;;;;;;30.07;31.67;100930.25;10383988;28;20117;-80
2022/05/11 10:06:10;;;;;;;5.13;2.58;;;;;;;29.89;30.56;100927.19;10389466;28;20042;-81
2022/05/11 10:11:22;;;;;;;13.80;3.50;;;;;;;29.92;31.16;100928.03;10406606;28;20037;-81
2022/05/11 10:22:20;;;;;;;6.07;2.22;;;;;;;30.30;30.00;100918.69;10401056;28;20030;-78
2022/05/11 10:27:47;;;;;;;6.35;3.10;;;;;;;30.85;29.12;100908.72;10404523;28;20049;-80
2022/05/11 10:33:08;;;;;;;7.30;3.15;;;;;;;30.97;30.14;100893.88;10405834;28;20038;-79
2022/05/11 10:38:18;;;;;;;8.35;3.00;;;;;;;30.73;28.90;100893.84;10407315;28;20069;-80
2022/05/11 10:43:43;;;;;;;5.40;2.22;;;;;;;30.85;27.92;100885.28;10403599;28;20049;-78
2022/05/11 10:49:02;;;;;;;12.00;3.08;;;;;;;30.90;28.22;100871.59;10406453;28;20387;-79
2022/05/11 10:54:16;;;;;;;6.20;2.40;;;;;;;29.98;28.87;100873.88;10403435;28;20405;-78
2022/05/11 10:59:52;;;;;;;5.78;1.88;;;;;;;29.67;32.09;100882.97;10405395;28;20042;-80
2022/05/11 11:04:59;;;;;;;9.50;3.10;;;;;;;30.10;28.69;100870.78;10397202;28;20045;-79
2022/05/11 11:10:24;;;;;;;8.45;2.60;;;;;;;30.45;28.53;100874.06;10400546;28;20091;-79
2022/05/11 11:15:26;;;;;;;9.30;2.90;;;;;;;29.93;27.66;100871.34;10402895;28;20492;-81
2022/05/11 11:20:37;;;;;;;5.90;2.35;;;;;;;30.33;28.04;100861.91;10381590;28;20063;-78
2022/05/11 11:25:40;;;;;;;11.93;2.42;;;;;;;30.62;28.32;100851.00;10397581;28;20072;-81
2022/05/11 11:31:01;;;;;;;6.40;2.50;;;;;;;31.22;26.73;100845.19;10402129;28;20060;-81
2022/05/11 11:36:05;;;;;;;8.30;2.57;;;;;;;30.93;26.69;100839.06;10372698;28;20037;-79
2022/05/11 11:41:09;;;;;;;7.93;2.90;;;;;;;30.46;28.54;100832.66;10369529;28;20061;-78
2022/05/11 11:46:09;;;;;;;7.97;2.63;;;;;;;30.26;27.90;100827.97;10398541;28;20038;-79
2022/05/11 11:51:11;;;;;;;10.23;2.97;;;;;;;30.10;29.93;100832.16;10384235;28;20398;-80
2022/05/11 11:56:24;;;;;;;5.10;2.13;;;;;;;31.41;27.13;100815.63;10354068;28;20029;-78
2022/05/11 12:01:25;;;;;;;6.78;2.10;;;;;;;32.08;27.03;100813.75;10401600;28;20065;-82
2022/05/11 12:17:23;;;;;;;6.28;2.58;;;;;;;30.89;27.37;100787.00;10332286;28;20492;-80
2022/05/11 12:22:25;;;;;;;7.50;2.92;;;;;;;30.67;27.75;100788.75;10379887;28;20044;-80
2022/05/11 12:27:28;;;;;;;7.57;5.10;;;;;;;30.63;28.97;100790.66;10380980;28;20064;-80
2022/05/11 12:32:35;;;;;;;4.25;2.50;;;;;;;31.26;27.71;100790.06;10380291;28;20041;-81
2022/05/11 12:37:37;;;;;;;6.20;2.92;;;;;;;30.98;26.64;100784.88;10401352;28;20513;-78
2022/05/11 12:42:41;;;;;;;7.68;2.90;;;;;;;31.01;27.10;100780.19;10400767;28;20041;-78
2022/05/11 12:47:54;;;;;;;6.57;3.13;;;;;;;31.35;26.18;100778.00;10401378;28;20037;-77
2022/05/11 12:53:00;;;;;;;7.25;2.35;;;;;;;30.81;26.72;100780.09;10362573;28;20037;-77
2022/05/11 12:58:03;;;;;;;11.63;2.97;;;;;;;31.31;28.06;100773.69;10397589;28;20042;-77
2022/05/11 13:03:26;;;;;;;5.35;2.33;;;;;;;29.91;28.38;100776.09;10399739;28;20048;-78
2022/05/11 13:08:31;;;;;;;7.82;2.30;;;;;;;30.38;29.33;100764.56;10408239;28;20069;-77
2022/05/11 13:13:31;;;;;;;4.35;1.83;;;;;;;30.80;27.12;100763.03;10395703;28;20111;-77
2022/05/11 13:18:32;;;;;;;9.05;1.60;;;;;;;30.65;27.14;100764.50;10357251;28;20111;-76
2022/05/11 13:23:38;;;;;;;7.60;1.77;;;;;;;31.03;28.84;100755.84;10376619;28;20380;-77
2022/05/11 13:28:53;;;;;;;8.63;4.82;;;;;;;30.63;27.64;100754.69;10398029;28;20044;-77
2022/05/11 13:33:54;;;;;;;4.10;1.75;;;;;;;29.93;28.54;100754.47;10372231;28;20378;-76
2022/05/11 13:39:23;;;;;;;16.53;3.20;;;;;;;29.79;28.98;100750.44;10380020;28;20045;-76
2022/05/11 13:44:35;;;;;;;4.93;1.90;;;;;;;29.98;29.15;100747.97;10376633;28;20454;-76
2022/05/11 13:49:38;;;;;;;5.60;2.22;;;;;;;29.82;29.62;100749.44;10395712;28;20044;-76
2022/05/11 13:54:43;;;;;;;2.92;1.38;;;;;;;30.55;27.69;100738.75;10384542;28;20037;-77
2022/05/11 13:59:45;;;;;;;5.05;1.58;;;;;;;30.67;27.75;100734.75;10386074;28;20564;-77
2022/05/11 14:04:47;;;;;;;8.07;4.97;;;;;;;29.64;28.53;100732.97;10383551;28;20061;-78
2022/05/11 14:09:47;;;;;;;;;;;;;;;29.53;29.43;100710.91;10398502;28;20154;-77
2022/05/11 14:14:48;;;;;;;8.17;3.67;;;;;;;28.62;31.28;100726.25;10396568;28;20350;-77
2022/05/11 14:19:51;;;;;;;3.20;1.85;;;;;;;29.00;31.02;100716.16;10412927;28;20047;-75
2022/05/11 14:24:52;;;;;;;8.70;2.50;;;;;;;29.27;30.07;100718.88;10398257;28;20044;-75
2022/05/11 14:29:52;;;;;;;7.60;2.13;;;;;;;29.21;30.63;100699.34;10397172;28;20128;-75
2022/05/11 14:34:53;;;;;;;3.67;1.67;;;;;;;28.72;31.94;100708.91;10398961;28;20163;-75
2022/05/11 14:39:55;;;;;;;2.47;1.00;;;;;;;29.42;29.30;100697.78;10373628;28;20041;-76
2022/05/11 14:44:55;;;;;;;14.18;3.67;;;;;;;29.45;29.88;100705.75;10405410;28;20068;-77
2022/05/11 14:49:56;;;;;;;8.10;2.07;;;;;;;28.32;31.39;100702.03;10406140;28;20145;-76
2022/05/11 14:54:56;;;;;;;7.87;1.93;;;;;;;27.73;32.16;100709.00;10386841;28;20037;-77
2022/05/11 15:05:16;;;;;;;5.20;1.65;;;;;;;27.40;32.17;100711.59;10386080;28;20037;-77
2022/05/11 15:10:17;;;;;;;2.97;1.50;;;;;;;26.81;32.99;100704.88;10406258;28;20140;-77
2022/05/11 15:15:18;;;;;;;7.20;1.67;;;;;;;26.41;34.00;100703.97;10368216;28;20041;-77
2022/05/11 15:20:20;;;;;;;11.50;3.30;;;;;;;25.31;36.77;100695.22;10388038;28;20044;-77
2022/05/11 15:25:21;;;;;;;4.75;2.10;;;;;;;25.35;35.72;100703.19;10385751;28;20045;-77
2022/05/11 15:30:22;;;;;;;6.10;2.13;;;;;;;25.13;36.55;100704.44;10387086;28;20045;-77
2022/05/11 15:35:23;;;;;;;5.07;1.90;;;;;;;24.49;38.22;100692.81;10401109;28;20045;-76
2022/05/11 15:40:26;;;;;;;7.20;1.85;;;;;;;24.18;38.09;100686.94;10385533;28;20091;-76
2022/05/11 15:45:27;;;;;;;4.43;1.48;;;;;;;24.44;38.07;100683.94;10372531;28;20049;-75
2022/05/11 15:50:28;;;;;;;7.68;2.95;;;;;;;24.24;38.19;100689.53;10386148;28;20038;-75
2022/05/11 15:55:30;;;;;;;5.63;3.03;;;;;;;24.05;38.69;100695.09;10394951;28;20091;-76
2022/05/11 16:00:30;;;;;;;6.05;1.95;;;;;;;23.98;38.27;100679.13;10401076;28;20647;-75
2022/05/11 16:05:30;;;;;;;3.70;1.43;;;;;;;23.97;37.81;100683.56;10384589;28;20073;-76
2022/05/11 16:10:32;;;;;;;6.97;2.60;;;;;;;23.73;38.31;100682.03;10382931;28;20128;-76
2022/05/11 16:15:32;;;;;;;6.32;1.60;;;;;;;23.61;39.02;100680.38;10397953;28;20103;-77
2022/05/11 16:20:33;;;;;;;6.87;2.47;;;;;;;23.59;38.86;100688.41;10380152;28;20601;-76
2022/05/11 16:25:34;;;;;;;6.53;2.07;;;;;;;23.50;38.98;100687.59;10380650;28;20089;-76
2022/05/11 16:30:36;;;;;;;5.07;2.30;;;;;;;23.63;38.53;100689.25;10365222;28;20040;-75
2022/05/11 16:35:37;;;;;;;4.40;2.60;;;;;;;23.49;39.15;100696.50;10379681;28;20095;-77
2022/05/11 16:40:38;;;;;;;8.70;1.70;;;;;;;23.16;39.65;100689.59;10379348;28;20065;-75
2022/05/11 16:45:39;;;;;;;14.13;2.57;;;;;;;23.04;39.53;100679.00;10381453;28;20128;-76
2022/05/11 16:50:40;;;;;;;6.90;2.08;;;;;;;22.82;40.54;100679.16;10381383;28;20068;-78
2022/05/11 16:55:41;;;;;;;8.63;2.53;;;;;;;22.94;40.23;100683.53;10380693;28;20481;-75
2022/05/11 17:00:41;;;;;;;5.57;1.60;;;;;;;23.25;40.03;100680.69;10361973;28;20033;-77
2022/05/11 17:05:42;;;;;;;11.27;2.53;;;;;;;23.12;39.06;100677.19;10399081;28;20057;-75
2022/05/11 17:10:43;;;;;;;7.30;2.05;;;;;;;22.71;40.43;100684.56;10398872;28;20044;-76
2022/05/11 17:15:52;;;;;;;5.40;1.80;;;;;;;22.58;41.27;100673.06;10381923;28;20076;-75
2022/05/11 17:20:53;;;;;;;9.02;3.17;;;;;;;22.31;42.37;100666.06;10394739;28;20053;-74
2022/05/11 17:25:54;;;;;;;14.93;5.73;;;;;;;22.17;42.54;100675.91;10364171;28;20029;-75
2022/05/11 17:30:56;;;;;;;4.47;2.33;;;;;;;22.29;42.39;100668.72;10362770;28;20042;-75
2022/05/11 17:35:58;;;;;;;5.55;2.08;;;;;;;22.58;41.85;100681.06;10379480;28;20049;-75
2022/05/11 17:40:58;;;;;;;5.60;2.38;;;;;;;22.84;41.19;100664.03;10383334;28;20056;-75
2022/05/11 17:45:59;;;;;;;2.03;1.10;;;;;;;22.92;41.47;100672.00;10366076;28;20060;-75
2022/05/11 17:50:59;;;;;;;5.17;2.07;;;;;;;22.80;40.74;100678.28;10382071;28;20536;-77
2022/05/11 17:56:02;;;;;;;8.13;1.97;;;;;;;22.42;41.60;100676.66;10365863;28;20087;-77
2022/05/11 18:01:03;;;;;;;4.05;1.75;;;;;;;22.17;42.14;100682.09;10350826;28;20385;-76
2022/05/11 18:06:03;;;;;;;6.53;1.73;;;;;;;22.00;43.14;100684.81;10382792;28;20117;-75
2022/05/11 18:11:04;;;;;;;3.23;1.60;;;;;;;21.93;43.16;100677.75;10380828;28;20052;-76
2022/05/11 18:16:05;;;;;;;7.20;2.10;;;;;;;21.74;43.41;100684.88;10384401;28;20033;-76
2022/05/11 18:21:06;;;;;;;11.88;2.15;;;;;;;21.62;43.68;100683.09;10389755;28;20373;-77
2022/05/11 18:26:06;;;;;;;7.77;2.10;;;;;;;21.49;43.20;100683.09;10371983;28;20103;-77
2022/05/11 18:31:07;;;;;;;4.93;2.37;;;;;;;21.38;44.14;100683.06;10389238;28;20033;-76
2022/05/11 18:36:07;;;;;;;6.70;2.75;;;;;;;21.31;43.92;100697.28;10390137;28;20038;-77
2022/05/11 18:41:09;;;;;;;5.72;2.45;;;;;;;21.26;44.86;100691.97;10387952;28;20456;-77
2022/05/11 18:46:11;;;;;;;4.80;2.00;;;;;;;21.14;44.98;100694.63;10406554;28;20041;-76
2022/05/11 18:51:12;;;;;;;5.70;2.10;;;;;;;21.05;44.97;100705.25;10389627;28;20488;-76
2022/05/11 18:56:12;;;;;;;9.15;2.38;;;;;;;20.96;45.03;100712.31;10388208;28;20117;-76
2022/05/11 19:01:13;;;;;;;11.43;3.72;;;;;;;20.63;46.04;100734.31;10388856;28;20042;-75
2022/05/11 19:06:14;;;;;;;8.27;3.30;;;;;;;20.10;46.79;100756.22;10388857;28;20034;-76
2022/05/11 19:11:17;;;;;;;9.30;3.08;;;;;;;19.64;47.37;100755.84;10406258;28;20037;-76
2022/05/11 19:16:18;;;;;;;7.30;2.28;;;;;;;19.25;48.24;100755.47;10405475;28;20491;-75
2022/05/11 19:21:18;;;;;;;9.63;3.00;;;;;;;19.00;48.51;100765.81;10371318;28;20048;-75
2022/05/11 19:26:19;;;;;;;8.27;2.80;;;;;;;18.88;48.55;100779.81;10386886;28;20037;-75
2022/05/11 19:31:20;;;;;;;8.50;2.35;;;;;;;18.70;48.75;100793.72;10353618;28;20493;-76
2022/05/11 19:36:20;;;;;;;9.40;4.63;;;;;;;18.48;49.29;100798.72;10387552;28;20044;-75
2022/05/11 19:41:21;;;;;;;11.45;2.95;;;;;;;18.19;50.23;100801.84;10370027;28;20453;-75
2022/05/11 19:46:22;;;;;;;9.50;2.97;;;;;;;17.74;51.70;100816.06;10387522;28;20045;-76
2022/05/11 19:51:22;;;;;;;6.93;2.40;;;;;;;17.36;52.81;100814.53;10370129;28;20501;-76
2022/05/11 19:56:23;;;;;;;8.98;2.72;;;;;;;17.14;53.58;100810.56;10386161;28;20473;-75
2022/05/11 20:01:24;;;;;;;11.55;2.72;;;;;;;16.97;54.35;100782.03;10404913;28;20057;-75
2022/05/11 20:06:25;;;;;;;9.30;2.28;;;;;;;16.78;55.16;100769.28;10403731;28;20128;-75
2022/05/11 20:11:28;;;;;;;8.07;3.33;;;;;;;16.36;56.88;100784.25;10385535;28;20600;-75
2022/05/11 20:16:29;;;;;;;9.45;4.00;;;;;;;16.02;61.28;100791.38;10385949;28;20041;-75
2022/05/11 20:21:29;;;;;;;10.52;2.13;;;;;;;15.76;61.01;100825.91;10386068;28;20078;-75
2022/05/11 20:26:31;;;;;;;13.70;3.40;;;;;;;15.44;61.63;100808.34;10384821;28;20064;-74
2022/05/11 20:36:50;;;;;;;11.05;4.85;;;;;;;15.25;61.92;100844.78;10374894;28;20428;-74
2022/05/11 20:41:51;;;;;;;10.18;3.58;;;;;;;15.32;62.29;100852.84;10384233;28;20087;-74
2022/05/11 20:46:52;;;;;;;12.90;2.67;;;;;;;15.27;62.68;100860.66;10402445;28;20501;-74
2022/05/11 20:51:53;;;;;;;7.07;3.78;;;;;;;15.14;62.39;100864.66;10384549;28;20087;-74
2022/05/11 20:56:54;;;;;;;6.07;2.63;;;;;;;15.12;62.55;100851.44;10402187;28;20544;-74
2022/05/11 21:01:55;;;;;;;7.93;2.70;;;;;;;15.26;62.34;100858.88;10384068;28;20033;-73
2022/05/11 21:06:55;;;;;;;13.25;4.72;;;;;;;15.51;61.40;100862.19;10397426;28;20072;-75
2022/05/11 21:11:56;;;;;;;18.38;3.53;;;;;;;15.82;60.06;100870.91;10398968;28;20049;-73
2022/05/11 21:16:56;;;;;;;9.18;2.67;;;;;;;16.12;59.67;100884.03;10383435;28;20037;-74
2022/05/11 21:21:57;;;;;;;6.07;2.92;;;;;;;16.39;58.39;100882.91;10399222;28;20038;-74
2022/05/11 21:26:57;;;;;;;9.73;2.08;;;;;;;16.67;58.24;100891.50;10382063;28;20072;-74
2022/05/11 21:31:58;;;;;;;15.98;3.55;;;;;;;16.80;60.15;100911.19;10381912;28;20064;-76
2022/05/11 21:36:58;;;;;;;6.97;1.95;;;;;;;16.61;62.22;100914.25;10378427;28;20577;-76
2022/05/11 21:41:59;;;;;;;14.32;3.13;;;;;;;16.38;66.34;100946.28;10377632;28;20124;-76
2022/05/11 21:46:59;;;;;;;8.43;3.35;;;;;;;15.12;75.57;100938.44;10399945;28;20042;-75
2022/05/11 21:52:00;;;;;;;10.85;4.88;;;;;;;14.16;82.75;100947.59;10398905;28;20493;-75
2022/05/11 21:57:00;;;;;;;8.38;4.82;;;;;;;13.74;86.85;100948.81;10403889;28;20044;-74
2022/05/11 22:02:01;;;;;;;6.30;3.40;;;;;;;13.56;88.74;100962.16;10408184;28;20061;-75
2022/05/11 22:07:01;;;;;;;11.68;4.10;;;;;;;13.43;91.26;100968.72;10403595;28;20378;-74
2022/05/11 22:12:02;;;;;;;6.82;3.35;;;;;;;13.34;91.52;100978.00;10404113;28;20033;-74
2022/05/11 22:17:03;;;;;;;10.20;4.57;;;;;;;13.35;92.83;100998.19;10372672;28;20041;-74
2022/05/11 22:22:04;;;;;;;11.02;4.22;;;;;;;13.38;93.12;101001.78;10373580;28;20381;-75
2022/05/11 22:27:04;;;;;;;18.48;4.50;;;;;;;13.50;92.57;101010.16;10388907;28;20049;-77
2022/05/11 22:32:05;;;;;;;9.30;4.70;;;;;;;13.56;92.33;101007.78;10388208;28;20062;-74
2022/05/11 22:37:06;;;;;;;9.82;4.05;;;;;;;13.58;92.36;101032.38;10402422;28;20041;-74
2022/05/11 22:42:07;;;;;;;9.48;4.93;;;;;;;13.48;92.89;101038.13;10406263;28;20108;-74
2022/05/11 22:47:07;;;;;;;10.38;5.13;;;;;;;13.47;93.59;101029.34;10405110;28;20041;-74
2022/05/11 22:52:08;;;;;;;7.72;4.53;;;;;;;13.45;93.81;101038.03;10356009;28;20095;-74
2022/05/11 22:57:08;;;;;;;8.85;4.05;;;;;;;13.42;94.54;101037.91;10369909;28;20056;-74
2022/05/11 23:02:09;;;;;;;12.13;6.88;;;;;;;13.35;94.94;101047.22;10405677;28;20037;-74
2022/05/11 23:07:10;;;;;;;22.60;8.93;;;;;;;13.34;95.70;101056.88;10400449;28;20038;-74
2022/05/11 23:12:10;;;;;;;12.27;5.97;;;;;;;13.35;96.01;101087.56;10367824;28;20131;-75
2022/05/11 23:17:11;;;;;;;12.18;5.93;;;;;;;13.45;96.47;101095.84;10388184;28;20033;-75
2022/05/11 23:22:11;;;;;;;11.07;5.60;;;;;;;13.51;95.85;101098.72;10404910;28;20121;-74
2022/05/11 23:27:12;;;;;;;13.63;4.45;;;;;;;13.49;90.49;101116.19;10403006;28;20057;-74
2022/05/11 23:32:12;;;;;;;7.10;4.13;;;;;;;13.40;88.58;101126.28;10386014;28;20068;-75
2022/05/11 23:37:13;;;;;;;15.82;3.42;;;;;;;13.29;87.74;101136.34;10382461;28;20049;-75
2022/05/11 23:42:13;;;;;;;8.00;3.80;;;;;;;13.09;87.79;101151.31;10383025;28;20562;-74
2022/05/11 23:47:14;;;;;;;14.48;4.07;;;;;;;12.87;86.71;101143.41;10403928;28;20058;-75
2022/05/11 23:52:14;;;;;;;14.35;4.72;;;;;;;12.64;87.31;101147.69;10386123;28;20103;-74
2022/05/11 23:57:15;;;;;;;9.32;5.18;;;;;;;12.33;88.24;101154.19;10368651;28;20064;-74
